Du har inga inställningar för hoppväder.nu

Hoppväder.nu

Senast uppdaterat 05:50

UTC-tid

2022-06-28 kl. 03:50


Sol och måne

Solen går upp 4:03 och går ner 22:50 (beräknade cirkatider)
Nästa fullmåne blir om 15 dagar (2022-07-13)

METAR

ESMQ (Kalmar)
(30 minuter sedan)
ESMQ 280320Z AUTO 13003KT 090V190 9999 NCD ///// Q1014=



ESMX (Växjö)
(30 minuter sedan)
ESMX 280320Z AUTO 08005KT 020V120 9999 R01///// R19/P2000N BKN086/// BKN140/// 19/18 Q1014 RERA RESHRA=



ESMK (Ronneby)
(30 minuter sedan)
ESMK 280320Z AUTO 26009KT 9999 OVC003/// 19/18 Q1015=



ESSV (Visby)
(30 minuter sedan)
ESSV 280320Z AUTO 12008KT 9999 R03///// R21/P2000N NCD 21/16 Q1016=






TAF

ESMQ (Kalmar)
ESMQ



ESMX (Växjö)
(440 minuter sedan)
ESMX 272030Z 2721/2801 16008KT CAVOK PROB40 2800/2801 SHRA BKN050CB=



ESMK (Ronneby)
ESMK



ESSV (Visby)
(80 minuter sedan)
ESSV 280230Z 2803/2812 14010KT CAVOK TEMPO 2810/2812 16015G25KT=





Kodnycklar till TAF och METAR






LHP

(Borglanda är område se22a i Delområde 2)

Prognos är inte uppdaterad






Preliminär prognos